Time;durP1;ratioP1;P1;durP2;ratioP2;P2;SDS_P1;SDS_P2;PMS_P1;PMS_P2;Temp;Humidity;BMP_temperature;BMP_pressure;BME280_temperature;BME280_humidity;BME280_pressure;Samples;Min_cycle;Max_cycle;Signal;HPM_P1;HPM_P2
2023/09/02 00:01:23;;;;;;;13.90;8.50;;;;;;;13.28;100.00;100598.92;218363;1286;141084;-87
2023/09/02 00:06:23;;;;;;;12.80;7.20;;;;;;;13.18;100.00;100599.77;219047;1291;96122;-87
2023/09/02 00:11:24;;;;;;;12.70;7.60;;;;;;;13.08;100.00;100598.71;218149;1291;141981;-88
2023/09/02 00:16:24;;;;;;;15.50;8.20;;;;;;;13.01;100.00;100602.30;218755;1286;140349;-87
2023/09/02 00:21:25;;;;;;;14.20;8.00;;;;;;;12.96;100.00;100601.55;218348;1287;141358;-88
2023/09/02 00:26:25;;;;;;;15.10;9.10;;;;;;;12.88;100.00;100603.88;218890;1289;139648;-87
2023/09/02 00:31:26;;;;;;;17.60;9.10;;;;;;;12.78;100.00;100605.71;218361;1289;141774;-88
2023/09/02 00:36:30;;;;;;;15.60;9.10;;;;;;;12.68;100.00;100602.52;218868;1288;140480;-88
2023/09/02 00:41:46;;;;;;;10.10;6.60;;;;;;;12.62;100.00;100609.58;218406;1288;142037;-88
2023/09/02 00:46:47;;;;;;;13.80;8.10;;;;;;;12.57;100.00;100614.60;218848;1288;139121;-87
2023/09/02 00:51:47;;;;;;;12.90;7.80;;;;;;;12.51;100.00;100612.77;218187;1288;141623;-88
2023/09/02 00:56:48;;;;;;;11.70;7.60;;;;;;;12.47;100.00;100618.48;218961;1289;138370;-87
2023/09/02 01:01:48;;;;;;;14.40;7.40;;;;;;;12.42;100.00;100620.11;218400;1289;140677;-88
2023/09/02 01:06:49;;;;;;;12.10;7.00;;;;;;;12.38;100.00;100620.55;218910;1287;139177;-88
2023/09/02 01:11:50;;;;;;;14.60;7.10;;;;;;;12.37;100.00;100620.78;218362;1288;142277;-88
2023/09/02 01:16:50;;;;;;;12.20;6.70;;;;;;;12.31;100.00;100627.67;218928;1288;139158;-89
2023/09/02 01:22:07;;;;;;;10.10;6.00;;;;;;;12.24;100.00;100626.83;218414;1286;141925;-89
2023/09/02 01:27:19;;;;;;;11.70;6.70;;;;;;;12.19;100.00;100627.34;218820;1288;139762;-89
2023/09/02 01:32:21;;;;;;;13.40;7.60;;;;;;;12.16;100.00;100630.95;218278;1287;141595;-89
2023/09/02 01:37:23;;;;;;;10.70;6.10;;;;;;;12.09;100.00;100638.40;218710;1286;140460;-88
2023/09/02 01:42:26;;;;;;;11.80;7.10;;;;;;;12.04;100.00;100641.18;218486;1286;141176;-89
2023/09/02 01:47:27;;;;;;;13.80;8.40;;;;;;;12.00;100.00;100647.38;218948;1286;107932;-88
2023/09/02 01:52:29;;;;;;;16.00;8.50;;;;;;;11.97;100.00;100647.11;218184;1286;140971;-88
2023/09/02 01:57:29;;;;;;;16.40;8.50;;;;;;;11.91;100.00;100645.39;218897;1287;139780;-88
2023/09/02 02:02:30;;;;;;;18.30;9.50;;;;;;;11.84;100.00;100648.72;218390;1288;143553;-88
2023/09/02 02:07:35;;;;;;;16.00;9.30;;;;;;;11.78;100.00;100652.21;218647;1286;139838;-89
2023/09/02 02:12:37;;;;;;;16.70;9.40;;;;;;;11.73;100.00;100656.27;218183;1287;141450;-88
2023/09/02 02:17:39;;;;;;;17.90;8.60;;;;;;;11.68;100.00;100658.98;218816;1286;96189;-88
2023/09/02 02:22:39;;;;;;;14.90;9.10;;;;;;;11.62;100.00;100651.96;218187;1288;142551;-88
2023/09/02 02:27:40;;;;;;;14.70;9.80;;;;;;;11.56;100.00;100650.15;218926;1288;139719;-88
2023/09/02 02:32:40;;;;;;;15.80;9.60;;;;;;;11.52;100.00;100652.61;218324;1286;141868;-88
2023/09/02 02:37:41;;;;;;;13.50;9.40;;;;;;;11.47;100.00;100650.60;218859;1288;139952;-88
2023/09/02 02:42:41;;;;;;;14.30;9.00;;;;;;;11.43;100.00;100651.42;218196;1288;141331;-88
2023/09/02 02:47:41;;;;;;;16.00;10.00;;;;;;;11.40;100.00;100650.05;218846;1286;95891;-89
2023/09/02 02:52:42;;;;;;;16.10;11.00;;;;;;;11.37;100.00;100652.06;218364;1286;141122;-88
2023/09/02 02:57:44;;;;;;;14.70;9.40;;;;;;;11.32;100.00;100652.64;218959;1286;139472;-88
2023/09/02 03:02:44;;;;;;;15.90;9.20;;;;;;;11.28;100.00;100652.66;218195;1288;140785;-88
2023/09/02 03:07:45;;;;;;;15.20;9.30;;;;;;;11.25;100.00;100653.88;218892;1288;139200;-87
2023/09/02 03:12:45;;;;;;;16.40;10.20;;;;;;;11.20;100.00;100659.80;218327;1285;141879;-87
2023/09/02 03:17:46;;;;;;;19.00;10.60;;;;;;;11.15;100.00;100657.38;218791;1287;96914;-88
2023/09/02 03:22:46;;;;;;;16.70;9.40;;;;;;;11.10;100.00;100661.09;218174;1288;141599;-89
2023/09/02 03:27:47;;;;;;;14.90;9.20;;;;;;;11.07;100.00;100661.30;218920;1287;139961;-86
2023/09/02 03:32:47;;;;;;;16.20;9.70;;;;;;;11.03;100.00;100668.95;218087;1288;142130;-88
2023/09/02 03:37:48;;;;;;;15.10;9.10;;;;;;;10.97;100.00;100671.94;218713;1288;140252;-88
2023/09/02 03:42:48;;;;;;;15.80;9.10;;;;;;;10.90;100.00;100672.17;218170;1289;143180;-88
2023/09/02 03:47:49;;;;;;;14.80;9.20;;;;;;;10.86;100.00;100677.08;218745;1287;96083;-88
2023/09/02 03:52:49;;;;;;;13.40;7.80;;;;;;;10.82;100.00;100684.33;218386;1287;141303;-87
2023/09/02 03:57:50;;;;;;;13.20;7.60;;;;;;;10.77;100.00;100690.16;218698;1286;138112;-89
2023/09/02 04:02:50;;;;;;;13.20;8.70;;;;;;;10.75;100.00;100687.28;218198;1287;143174;-88
2023/09/02 04:07:50;;;;;;;13.50;7.10;;;;;;;10.73;100.00;100689.09;218867;1287;139886;-89
2023/09/02 04:12:51;;;;;;;14.90;8.70;;;;;;;10.70;100.00;100691.31;218205;1288;141211;-89
2023/09/02 04:17:51;;;;;;;12.40;7.90;;;;;;;10.65;100.00;100694.31;218710;1288;96057;-88
2023/09/02 04:22:52;;;;;;;13.60;7.50;;;;;;;10.63;100.00;100702.61;218177;1288;140336;-88
2023/09/02 04:27:52;;;;;;;15.00;8.80;;;;;;;10.62;100.00;100709.20;218885;1288;139944;-89
2023/09/02 04:32:53;;;;;;;12.30;8.30;;;;;;;10.59;100.00;100720.88;218145;1286;143342;-88
2023/09/02 04:37:54;;;;;;;13.80;8.50;;;;;;;10.56;100.00;100730.35;218625;1288;140107;-89
2023/09/02 04:42:56;;;;;;;11.40;7.40;;;;;;;10.55;100.00;100733.23;218339;1287;142885;-89
2023/09/02 04:47:56;;;;;;;15.50;9.10;;;;;;;10.56;100.00;100740.64;219045;1286;95998;-89
2023/09/02 04:52:57;;;;;;;13.30;8.40;;;;;;;10.57;100.00;100742.54;218127;1287;141355;-90
2023/09/02 04:57:58;;;;;;;14.20;7.40;;;;;;;10.58;100.00;100745.39;218575;1286;139697;-89
2023/09/02 05:03:00;;;;;;;11.70;7.70;;;;;;;10.60;100.00;100755.03;218028;1288;141196;-89
2023/09/02 05:08:03;;;;;;;13.30;7.70;;;;;;;10.65;100.00;100763.51;218763;1287;139888;-88
2023/09/02 05:13:04;;;;;;;17.80;9.50;;;;;;;10.70;100.00;100772.01;218266;1287;141625;-89
2023/09/02 05:18:04;;;;;;;13.10;8.40;;;;;;;10.76;100.00;100777.61;218708;1288;96384;-89
2023/09/02 05:23:04;;;;;;;17.20;9.90;;;;;;;10.83;100.00;100784.02;218145;1286;141854;-89
2023/09/02 05:28:05;;;;;;;19.40;10.60;;;;;;;10.88;100.00;100783.23;218847;1287;139403;-89
2023/09/02 05:33:06;;;;;;;15.60;10.50;;;;;;;10.96;100.00;100775.73;218196;1287;142131;-88
2023/09/02 05:38:06;;;;;;;18.00;10.60;;;;;;;11.07;100.00;100775.09;218600;1287;139721;-88
2023/09/02 05:43:06;;;;;;;19.30;12.20;;;;;;;11.16;100.00;100781.91;218091;1288;142334;-89
2023/09/02 05:48:07;;;;;;;20.70;13.30;;;;;;;11.31;100.00;100787.33;218691;1286;96041;-89
2023/09/02 05:53:08;;;;;;;18.40;12.70;;;;;;;11.55;100.00;100792.06;218018;1288;141213;-89
2023/09/02 05:58:08;;;;;;;22.90;12.70;;;;;;;11.83;100.00;100790.54;218465;1286;140573;-89
2023/09/02 06:03:09;;;;;;;20.30;12.90;;;;;;;12.14;100.00;100795.55;218060;1287;142931;-88
2023/09/02 06:08:09;;;;;;;18.00;10.70;;;;;;;12.44;100.00;100797.88;218645;1287;139992;-90
2023/09/02 06:13:10;;;;;;;17.30;9.50;;;;;;;12.65;100.00;100799.10;217843;1287;142094;-89
2023/09/02 06:18:10;;;;;;;12.70;8.70;;;;;;;12.86;100.00;100805.20;218823;1287;108370;-89
2023/09/02 06:23:10;;;;;;;17.50;8.80;;;;;;;13.09;100.00;100812.50;218211;1287;143787;-89
2023/09/02 06:28:11;;;;;;;14.40;9.10;;;;;;;13.39;100.00;100811.75;218814;1286;139860;-88
2023/09/02 06:33:11;;;;;;;16.00;9.30;;;;;;;13.71;100.00;100812.14;217974;1288;141083;-88
2023/09/02 06:38:12;;;;;;;16.70;9.80;;;;;;;13.87;100.00;100815.79;218645;1286;139854;-88
2023/09/02 06:43:12;;;;;;;16.80;9.30;;;;;;;13.99;100.00;100811.31;218196;1287;141590;-88
2023/09/02 06:48:13;;;;;;;17.20;8.80;;;;;;;14.18;100.00;100817.31;218739;1286;96160;-88
2023/09/02 06:53:13;;;;;;;13.00;7.80;;;;;;;14.31;100.00;100820.77;218024;1286;141514;-89
2023/09/02 06:58:14;;;;;;;15.00;7.60;;;;;;;14.42;100.00;100826.73;218658;1287;139946;-89
2023/09/02 07:03:14;;;;;;;11.10;6.20;;;;;;;14.54;100.00;100831.48;217966;1288;140991;-88
2023/09/02 07:08:16;;;;;;;12.90;6.00;;;;;;;14.69;100.00;100839.90;218430;1287;139163;-89
2023/09/02 07:13:16;;;;;;;11.20;6.00;;;;;;;14.79;100.00;100847.03;217869;1288;142029;-88
2023/09/02 07:18:17;;;;;;;11.80;6.00;;;;;;;14.94;100.00;100853.05;218752;1287;96014;-90
2023/09/02 07:23:19;;;;;;;11.80;5.10;;;;;;;15.11;100.00;100859.55;218138;1288;141822;-89
2023/09/02 07:28:19;;;;;;;9.50;5.20;;;;;;;15.28;100.00;100861.42;218541;1288;141756;-88
2023/09/02 07:33:20;;;;;;;9.50;5.20;;;;;;;15.46;100.00;100866.98;218076;1287;141324;-88
2023/09/02 07:38:20;;;;;;;13.50;5.40;;;;;;;15.63;100.00;100866.30;218593;1287;139992;-88
2023/09/02 07:43:21;;;;;;;14.10;5.10;;;;;;;15.81;100.00;100873.55;218114;1286;140710;-86
2023/09/02 07:48:21;;;;;;;10.20;4.20;;;;;;;15.97;100.00;100874.69;218525;1286;96100;-87
2023/09/02 07:53:22;;;;;;;12.50;4.10;;;;;;;16.13;100.00;100879.15;218090;1288;140891;-88
2023/09/02 07:58:23;;;;;;;9.40;4.80;;;;;;;16.30;100.00;100885.41;218736;1286;139649;-87
2023/09/02 08:03:24;;;;;;;9.80;4.50;;;;;;;16.50;100.00;100893.91;218080;1287;141993;-88
2023/09/02 08:08:24;;;;;;;10.80;3.80;;;;;;;16.69;100.00;100896.66;218864;1287;139684;-89
2023/09/02 08:13:25;;;;;;;11.50;4.60;;;;;;;16.91;100.00;100896.43;218274;1287;143220;-88
2023/09/02 08:18:25;;;;;;;9.10;3.90;;;;;;;17.15;100.00;100903.23;218802;1287;96077;-88
2023/09/02 08:23:26;;;;;;;10.20;4.40;;;;;;;17.35;100.00;100906.49;218328;1287;140534;-88
2023/09/02 08:28:26;;;;;;;9.60;3.90;;;;;;;17.59;100.00;100909.72;218894;1286;139039;-88
2023/09/02 08:33:27;;;;;;;6.80;3.60;;;;;;;17.89;100.00;100913.45;218291;1287;143403;-88
2023/09/02 08:38:27;;;;;;;9.40;3.60;;;;;;;18.34;100.00;100923.29;218884;1287;139561;-88
2023/09/02 08:43:28;;;;;;;6.70;2.50;;;;;;;18.84;99.57;100920.27;218345;1287;141921;-85
2023/09/02 08:48:34;;;;;;;6.70;2.70;;;;;;;19.33;95.87;100921.05;218867;1286;138961;-86
2023/09/02 08:53:34;;;;;;;7.00;3.10;;;;;;;19.91;94.74;100923.43;218396;1288;141011;-87
2023/09/02 08:58:39;;;;;;;5.30;2.80;;;;;;;20.57;87.79;100926.96;218751;1287;140106;-85
2023/09/02 09:03:41;;;;;;;8.00;2.10;;;;;;;21.35;85.63;100934.44;218176;1287;141566;-87
2023/09/02 09:08:43;;;;;;;4.10;2.00;;;;;;;22.07;74.78;100935.74;218534;1288;138990;-87
2023/09/02 09:13:47;;;;;;;5.80;1.90;;;;;;;22.81;75.68;100941.38;218034;1287;141926;-86
2023/09/02 09:18:49;;;;;;;5.50;2.00;;;;;;;23.49;71.46;100938.95;218627;1288;139314;-87
2023/09/02 09:23:50;;;;;;;6.60;2.00;;;;;;;24.24;67.88;100945.45;218123;1288;140233;-86
2023/09/02 09:28:56;;;;;;;4.60;1.70;;;;;;;25.04;69.49;100948.59;218629;1286;138070;-86
2023/09/02 09:33:59;;;;;;;3.60;1.70;;;;;;;25.96;65.55;100954.90;218139;1287;141087;-87
2023/09/02 09:39:02;;;;;;;6.60;1.90;;;;;;;26.67;62.48;100955.06;218861;1288;138154;-88
2023/09/02 09:44:16;;;;;;;3.90;1.70;;;;;;;27.19;58.22;100957.73;218255;1288;139406;-89
2023/09/02 09:49:27;;;;;;;3.10;1.20;;;;;;;27.56;54.09;100961.16;218025;1288;140715;-89
2023/09/02 09:54:42;;;;;;;6.70;1.40;;;;;;;27.90;54.17;100967.07;218736;1288;114396;-87
2023/09/02 09:59:51;;;;;;;2.60;1.40;;;;;;;28.21;51.56;100968.64;218342;1286;140059;-89
2023/09/02 10:04:53;;;;;;;3.10;1.20;;;;;;;28.61;52.31;100979.38;218677;1287;138334;-87
2023/09/02 10:09:55;;;;;;;3.50;1.30;;;;;;;28.77;48.60;100974.40;218017;1287;139763;-89
2023/09/02 10:14:59;;;;;;;4.40;1.20;;;;;;;28.86;50.03;100979.32;218744;1287;139333;-88
2023/09/02 10:19:59;;;;;;;3.10;1.50;;;;;;;29.13;48.53;100982.83;218150;1287;140187;-88
2023/09/02 10:25:13;;;;;;;3.80;1.20;;;;;;;29.27;48.51;100980.53;218554;1287;139372;-87
2023/09/02 10:30:25;;;;;;;3.20;1.30;;;;;;;29.58;47.93;100979.98;218233;1291;140774;-90
2023/09/02 10:35:28;;;;;;;4.10;1.70;;;;;;;29.70;46.03;100976.19;218463;1288;138010;-88
2023/09/02 10:40:39;;;;;;;5.20;1.30;;;;;;;29.87;48.41;100977.35;218285;1286;139994;-90
2023/09/02 10:45:40;;;;;;;5.30;1.40;;;;;;;30.06;46.60;100982.13;218536;1286;138390;-89
2023/09/02 10:50:41;;;;;;;1.90;1.20;;;;;;;30.25;45.41;100980.42;218389;1288;140419;-86
2023/09/02 10:55:58;;;;;;;5.50;1.90;;;;;;;30.20;46.21;100977.95;218701;1288;139611;-88
2023/09/02 11:01:02;;;;;;;5.10;1.70;;;;;;;30.41;47.25;100980.87;217663;1289;500922;-88
2023/09/02 11:06:06;;;;;;;6.40;1.50;;;;;;;30.69;47.33;100985.31;219037;1287;95936;-87
2023/09/02 11:11:06;;;;;;;3.30;1.30;;;;;;;30.84;47.01;100983.09;218299;1288;140715;-87
2023/09/02 11:16:13;;;;;;;3.00;1.50;;;;;;;31.09;46.53;100979.48;218912;1286;137958;-89
2023/09/02 11:21:40;;;;;;;2.80;1.40;;;;;;;31.33;45.97;100988.01;218291;1285;142729;-86
2023/09/02 11:26:54;;;;;;;3.70;1.20;;;;;;;31.38;45.46;100994.92;218628;1288;138411;-89
2023/09/02 11:31:55;;;;;;;;;;;;;;;31.40;44.09;100995.52;218056;1288;142147;-91
2023/09/02 11:36:57;;;;;;;3.90;1.00;;;;;;;31.21;44.51;100990.39;218912;1288;124970;-88
2023/09/02 11:42:08;;;;;;;3.50;1.10;;;;;;;31.04;44.13;100994.33;218453;1288;140587;-88
2023/09/02 11:47:13;;;;;;;2.70;1.00;;;;;;;30.80;44.79;100991.78;218903;1288;139278;-88
2023/09/02 11:52:14;;;;;;;2.30;1.30;;;;;;;30.83;43.94;100982.61;218277;1289;139061;-90
2023/09/02 11:57:17;;;;;;;2.50;1.10;;;;;;;30.70;43.29;100983.57;219089;1285;138422;-90
2023/09/02 12:02:19;;;;;;;3.20;1.30;;;;;;;30.59;44.52;100984.58;218226;1288;140081;-87
2023/09/02 12:07:20;;;;;;;4.00;1.40;;;;;;;30.31;44.40;100984.31;218872;1288;138947;-87
2023/09/02 12:12:22;;;;;;;5.80;1.40;;;;;;;30.04;45.34;100982.95;218488;1287;140731;-87
2023/09/02 12:17:22;;;;;;;3.80;1.60;;;;;;;29.89;44.54;100982.84;218924;1287;138073;-88
2023/09/02 12:22:23;;;;;;;4.60;1.20;;;;;;;29.54;43.33;100979.05;218263;1286;140085;-88
2023/09/02 12:27:24;;;;;;;4.10;1.30;;;;;;;29.34;43.15;100973.83;218979;1286;138341;-86
2023/09/02 12:32:24;;;;;;;3.70;1.30;;;;;;;28.84;43.83;100971.30;217858;1286;139242;-91
2023/09/02 12:37:25;;;;;;;3.00;1.40;;;;;;;28.60;43.52;100977.75;218948;1287;139110;-89
2023/09/02 12:42:25;;;;;;;4.40;1.20;;;;;;;28.36;45.46;100978.50;218467;1288;139933;-91
2023/09/02 12:47:27;;;;;;;1.90;1.10;;;;;;;28.24;43.74;100980.90;218811;1288;137900;-90
2023/09/02 12:52:28;;;;;;;2.60;1.10;;;;;;;27.79;43.78;100982.77;218209;1286;141445;-89
2023/09/02 12:57:33;;;;;;;3.60;1.30;;;;;;;27.49;45.77;100989.86;218712;1286;138155;-88
2023/09/02 13:02:34;;;;;;;3.20;1.30;;;;;;;27.38;44.67;100982.71;218095;1288;138887;-85
2023/09/02 13:07:34;;;;;;;4.50;1.40;;;;;;;26.91;44.12;100984.65;218983;1287;138946;-92
2023/09/02 13:12:36;;;;;;;2.70;1.20;;;;;;;26.70;45.75;100984.37;218246;1288;141934;-87
2023/09/02 13:17:37;;;;;;;2.80;1.40;;;;;;;26.49;45.80;100982.12;218619;1288;96104;-91
2023/09/02 13:22:37;;;;;;;2.80;1.40;;;;;;;26.33;45.32;100989.19;218256;1289;141217;-91
2023/09/02 13:27:38;;;;;;;6.70;1.80;;;;;;;26.08;46.62;100987.89;218744;1286;139093;-90
2023/09/02 13:32:38;;;;;;;3.70;1.50;;;;;;;25.89;46.22;100983.81;218268;1288;141382;-92
2023/09/02 13:37:46;;;;;;;3.00;1.20;;;;;;;25.71;47.55;100981.34;218941;1286;138523;-91
2023/09/02 13:42:47;;;;;;;4.20;1.40;;;;;;;25.68;46.71;100985.14;218545;1288;140565;-92
2023/09/02 13:47:49;;;;;;;4.80;1.90;;;;;;;25.55;47.68;100985.08;218981;1288;96538;-92
2023/09/02 13:52:51;;;;;;;4.90;1.50;;;;;;;25.48;47.42;100989.23;218354;1286;139408;-90
2023/09/02 13:57:52;;;;;;;3.80;1.60;;;;;;;25.48;48.15;100983.50;218720;1288;139475;-91
2023/09/02 14:02:54;;;;;;;3.90;1.70;;;;;;;25.53;48.26;100981.23;218283;1286;139904;-89
2023/09/02 14:08:02;;;;;;;3.30;1.70;;;;;;;25.48;48.19;100978.20;218876;1289;138167;-90
2023/09/02 14:13:08;;;;;;;4.00;1.80;;;;;;;25.31;46.37;100979.05;218230;1289;139917;-90
2023/09/02 14:18:09;;;;;;;2.50;1.40;;;;;;;24.89;47.17;100977.84;218714;1289;105005;-88
2023/09/02 14:23:10;;;;;;;3.60;1.40;;;;;;;24.78;49.99;100976.91;218160;1289;141326;-88
2023/09/02 14:28:11;;;;;;;4.40;1.60;;;;;;;24.84;51.28;100979.63;218870;1289;138048;-87
2023/09/02 14:33:12;;;;;;;3.60;1.50;;;;;;;24.80;50.71;100983.11;217986;1288;141610;-91
2023/09/02 14:38:13;;;;;;;4.40;2.10;;;;;;;24.81;51.24;100983.92;218855;1291;138453;-91
2023/09/02 14:43:13;;;;;;;3.20;1.50;;;;;;;24.80;49.27;100981.31;218339;1286;141263;-88
2023/09/02 14:48:13;;;;;;;4.70;1.70;;;;;;;24.73;51.97;100984.41;218885;1286;104423;-89
2023/09/02 14:53:14;;;;;;;3.00;1.70;;;;;;;24.57;50.70;100986.70;218080;1288;139922;-87
2023/09/02 14:58:17;;;;;;;4.70;1.50;;;;;;;24.39;51.77;100985.48;218813;1286;138929;-87
2023/09/02 15:03:25;;;;;;;5.10;1.60;;;;;;;24.27;49.30;100985.96;218311;1287;140679;-87
2023/09/02 15:08:27;;;;;;;3.90;1.70;;;;;;;24.07;48.70;100985.70;218750;1289;139639;-87
2023/09/02 15:13:29;;;;;;;3.40;1.60;;;;;;;23.95;51.21;100991.99;218102;1288;140772;-87
2023/09/02 15:18:30;;;;;;;4.10;1.60;;;;;;;23.85;50.26;100996.90;218921;1287;96141;-88
2023/09/02 15:23:32;;;;;;;4.50;1.70;;;;;;;23.71;51.18;100998.34;218164;1291;141000;-87
2023/09/02 15:28:32;;;;;;;3.40;1.60;;;;;;;23.55;50.44;101004.56;218927;1287;138074;-88
2023/09/02 15:33:33;;;;;;;5.20;2.50;;;;;;;23.39;51.01;100999.08;218370;1286;141385;-88
2023/09/02 15:38:33;;;;;;;5.10;1.60;;;;;;;23.26;52.33;101004.98;218819;1288;138420;-88
2023/09/02 15:43:39;;;;;;;3.90;1.70;;;;;;;23.15;52.43;100995.77;218195;1286;140246;-87
2023/09/02 15:48:40;;;;;;;5.10;1.90;;;;;;;22.98;51.64;100998.52;218648;1286;138576;-86
2023/09/02 15:53:41;;;;;;;3.30;1.70;;;;;;;22.82;52.40;100997.80;218020;1288;139970;-86
2023/09/02 15:58:41;;;;;;;3.30;2.00;;;;;;;22.65;52.76;100999.42;218824;1289;138191;-88
2023/09/02 16:03:42;;;;;;;5.00;2.50;;;;;;;22.48;53.79;101003.52;218179;1288;141110;-88
2023/09/02 16:08:42;;;;;;;4.80;2.00;;;;;;;22.37;54.73;101005.50;218772;1289;138427;-88
2023/09/02 16:13:42;;;;;;;5.50;2.40;;;;;;;22.29;54.94;101002.28;218312;1289;141912;-89
2023/09/02 16:18:43;;;;;;;3.90;1.90;;;;;;;22.16;53.68;101000.80;218552;1289;138166;-87
2023/09/02 16:23:43;;;;;;;3.90;1.70;;;;;;;22.00;53.85;100999.46;218181;1286;140149;-89
2023/09/02 16:28:44;;;;;;;4.40;1.90;;;;;;;21.83;54.24;101007.46;218817;1289;138780;-88
2023/09/02 16:33:44;;;;;;;2.80;1.60;;;;;;;21.65;55.33;101012.86;218236;1288;141299;-90
2023/09/02 16:38:45;;;;;;;5.90;2.20;;;;;;;21.46;55.99;101012.73;218809;1287;140130;-88
2023/09/02 16:43:48;;;;;;;4.50;1.90;;;;;;;21.31;56.54;101021.59;217963;1288;140092;-88
2023/09/02 16:48:48;;;;;;;4.40;2.00;;;;;;;21.16;58.27;101028.02;218846;1289;138805;-88
2023/09/02 16:53:49;;;;;;;3.40;1.80;;;;;;;21.08;58.99;101027.73;218325;1290;140059;-88
2023/09/02 16:58:49;;;;;;;2.30;1.50;;;;;;;20.97;59.86;101029.66;218747;1291;138516;-88
2023/09/02 17:03:52;;;;;;;7.50;2.40;;;;;;;20.84;60.50;101020.06;218285;1289;140928;-87
2023/09/02 17:08:52;;;;;;;6.80;2.10;;;;;;;20.71;61.67;101024.50;218646;1289;140039;-89
2023/09/02 17:13:53;;;;;;;4.60;2.40;;;;;;;20.55;62.09;101023.39;218424;1289;139813;-89
2023/09/02 17:18:54;;;;;;;6.40;2.60;;;;;;;20.41;63.49;101020.63;218555;1288;138873;-88
2023/09/02 17:23:54;;;;;;;5.30;2.80;;;;;;;20.25;64.30;101016.86;218433;1289;140379;-89
2023/09/02 17:28:55;;;;;;;6.40;2.70;;;;;;;20.06;65.35;101018.09;218758;1287;139378;-87
2023/09/02 17:33:55;;;;;;;5.50;2.20;;;;;;;19.83;66.46;101019.59;218096;1286;140746;-90
2023/09/02 17:38:56;;;;;;;7.70;3.20;;;;;;;19.59;67.24;101021.29;218702;1288;138377;-88
2023/09/02 17:43:56;;;;;;;11.80;3.50;;;;;;;19.33;68.31;101028.15;218240;1288;140626;-89
2023/09/02 17:48:57;;;;;;;13.10;4.20;;;;;;;19.12;69.36;101036.58;218842;1288;139047;-88
2023/09/02 17:53:57;;;;;;;9.00;4.00;;;;;;;18.91;70.73;101047.23;218257;1287;140980;-88
2023/09/02 17:58:58;;;;;;;8.80;4.10;;;;;;;18.69;71.57;101050.84;218849;1288;138191;-87
2023/09/02 18:03:58;;;;;;;10.40;4.20;;;;;;;18.49;72.31;101053.64;218129;1288;139735;-88
2023/09/02 18:08:59;;;;;;;12.60;4.70;;;;;;;18.27;73.38;101063.02;218728;1287;138397;-88
2023/09/02 18:14:00;;;;;;;8.30;4.30;;;;;;;18.07;74.45;101065.66;218086;1286;140227;-90
2023/09/02 18:19:01;;;;;;;10.90;5.20;;;;;;;17.88;75.39;101068.21;219030;1289;137034;-91
2023/09/02 18:24:04;;;;;;;15.10;5.30;;;;;;;17.71;76.04;101068.67;218311;1288;142211;-90
2023/09/02 18:29:05;;;;;;;18.30;6.10;;;;;;;17.53;76.83;101077.71;218033;1288;141208;-90
2023/09/02 18:34:05;;;;;;;13.70;6.30;;;;;;;17.36;77.44;101081.39;218721;1289;139294;-90
2023/09/02 18:39:05;;;;;;;12.90;6.10;;;;;;;17.19;78.22;101086.16;218283;1287;142163;-90
2023/09/02 18:44:06;;;;;;;18.90;6.80;;;;;;;17.03;78.99;101087.67;218542;1288;139486;-89
2023/09/02 18:49:07;;;;;;;11.90;6.70;;;;;;;16.87;79.65;101091.00;218045;1289;141126;-88
2023/09/02 18:54:09;;;;;;;13.50;7.80;;;;;;;16.72;80.68;101097.19;218909;1287;96177;-89
2023/09/02 18:59:10;;;;;;;12.80;7.60;;;;;;;16.58;81.35;101098.96;218228;1288;140704;-89
2023/09/02 19:04:10;;;;;;;13.80;7.70;;;;;;;16.46;82.06;101102.02;218821;1288;139994;-89
2023/09/02 19:09:12;;;;;;;17.70;7.20;;;;;;;16.36;82.20;101104.86;218364;1287;142443;-90
2023/09/02 19:14:12;;;;;;;13.00;7.30;;;;;;;16.20;83.06;101108.46;218839;1287;139241;-90
2023/09/02 19:19:13;;;;;;;14.30;6.80;;;;;;;16.04;83.81;101111.08;218316;1286;140650;-89
2023/09/02 19:24:13;;;;;;;11.00;6.70;;;;;;;15.89;84.71;101109.02;218771;1288;96361;-88
2023/09/02 19:29:14;;;;;;;13.00;7.40;;;;;;;15.76;85.55;101111.70;218306;1288;141117;-89
2023/09/02 19:34:14;;;;;;;16.40;8.00;;;;;;;15.67;86.05;101121.92;218794;1288;139521;-89
2023/09/02 19:39:17;;;;;;;12.00;6.00;;;;;;;15.57;86.59;101123.02;218227;1287;142349;-89
2023/09/02 19:44:17;;;;;;;13.10;6.80;;;;;;;15.48;87.06;101120.05;218825;1288;139746;-89
2023/09/02 19:49:22;;;;;;;11.80;6.60;;;;;;;15.38;87.80;101116.78;218245;1288;141943;-89
2023/09/02 19:54:23;;;;;;;13.00;7.20;;;;;;;15.29;88.58;101121.73;218797;1288;104433;-89
2023/09/02 19:59:23;;;;;;;12.60;7.00;;;;;;;15.19;89.23;101124.46;218127;1287;141683;-89
2023/09/02 20:04:24;;;;;;;15.00;6.90;;;;;;;15.09;89.76;101124.98;218764;1286;139084;-90
2023/09/02 20:09:25;;;;;;;14.90;7.00;;;;;;;14.98;90.39;101123.91;218319;1288;143342;-89
2023/09/02 20:14:25;;;;;;;12.70;7.60;;;;;;;14.88;90.94;101127.35;218520;1286;139288;-89
2023/09/02 20:19:29;;;;;;;11.20;6.30;;;;;;;14.81;91.68;101131.44;218282;1287;141378;-89
2023/09/02 20:24:31;;;;;;;18.20;7.70;;;;;;;14.76;92.60;101128.23;218842;1286;103899;-89
2023/09/02 20:29:32;;;;;;;15.00;8.00;;;;;;;14.70;92.95;101122.42;218343;1286;142284;-89
2023/09/02 20:34:32;;;;;;;14.30;7.80;;;;;;;14.64;93.58;101125.48;218626;1286;139536;-88
2023/09/02 20:39:33;;;;;;;15.20;7.90;;;;;;;14.57;93.78;101127.34;218176;1288;141663;-90
2023/09/02 20:44:33;;;;;;;13.10;7.00;;;;;;;14.50;94.19;101125.55;218863;1287;139935;-89
2023/09/02 20:49:34;;;;;;;12.60;6.80;;;;;;;14.44;94.56;101122.75;218369;1286;141252;-88
2023/09/02 20:54:38;;;;;;;11.90;6.90;;;;;;;14.39;95.00;101125.95;219047;1286;96927;-90
2023/09/02 20:59:38;;;;;;;12.60;6.70;;;;;;;14.34;95.24;101126.16;218256;1288;140507;-89
2023/09/02 21:04:43;;;;;;;13.50;6.40;;;;;;;14.29;95.41;101131.42;218605;1288;139718;-89
2023/09/02 21:09:44;;;;;;;12.90;7.30;;;;;;;14.21;96.03;101132.64;217918;1288;141155;-89
2023/09/02 21:14:44;;;;;;;13.60;7.30;;;;;;;14.16;96.06;101129.55;218568;1287;140076;-90
2023/09/02 21:19:44;;;;;;;12.50;6.70;;;;;;;14.11;96.12;101127.62;218119;1286;141348;-89
2023/09/02 21:24:49;;;;;;;12.80;7.20;;;;;;;14.04;97.22;101126.14;218783;1288;139275;-90
2023/09/02 21:29:49;;;;;;;13.00;7.60;;;;;;;13.96;97.90;101121.09;218275;1287;141241;-91
2023/09/02 21:34:50;;;;;;;10.30;6.50;;;;;;;13.89;98.33;101122.23;218806;1286;138947;-90
2023/09/02 21:39:51;;;;;;;15.00;7.80;;;;;;;13.83;98.42;101114.57;217978;1287;142244;-91
2023/09/02 21:44:53;;;;;;;12.20;7.10;;;;;;;13.79;99.40;101118.34;218699;1286;138971;-90
2023/09/02 21:49:55;;;;;;;13.30;6.80;;;;;;;13.74;99.56;101120.59;218249;1286;140818;-89
2023/09/02 21:54:55;;;;;;;15.80;6.90;;;;;;;13.69;99.70;101122.91;218669;1287;139776;-88
2023/09/02 21:59:56;;;;;;;13.10;7.40;;;;;;;13.67;99.72;101126.13;218188;1287;141559;-90
2023/09/02 22:04:56;;;;;;;12.90;6.90;;;;;;;13.62;99.84;101129.08;218655;1286;139486;-90
2023/09/02 22:09:57;;;;;;;12.30;6.30;;;;;;;13.56;99.94;101132.42;218092;1286;141995;-89
2023/09/02 22:14:57;;;;;;;12.30;7.40;;;;;;;13.54;99.79;101132.71;218652;1289;139648;-89
2023/09/02 22:19:58;;;;;;;11.40;6.70;;;;;;;13.49;99.93;101135.59;218194;1286;141725;-89
2023/09/02 22:24:58;;;;;;;13.30;7.10;;;;;;;13.45;100.00;101137.67;218690;1288;139985;-89
2023/09/02 22:29:59;;;;;;;12.40;7.20;;;;;;;13.44;100.00;101136.55;218253;1286;141671;-89
2023/09/02 22:35:00;;;;;;;15.30;7.30;;;;;;;13.42;100.00;101138.20;218795;1286;139509;-89